sensor_id;sensor_type;location;lat;lon;timestamp;P1;durP1;ratioP1;P2;durP2;ratioP2
37237;SDS011;23129;49.662;8.448;2022-10-26T00:01:22;8.25;;;2.58;;
37237;SDS011;23129;49.662;8.448;2022-10-26T00:03:53;8.05;;;3.35;;
37237;SDS011;23129;49.662;8.448;2022-10-26T00:06:23;8.93;;;3.80;;
37237;SDS011;23129;49.662;8.448;2022-10-26T00:08:52;8.23;;;3.50;;
37237;SDS011;23129;49.662;8.448;2022-10-26T00:11:24;9.70;;;3.50;;
37237;SDS011;23129;49.662;8.448;2022-10-26T00:13:52;7.95;;;4.40;;
37237;SDS011;23129;49.662;8.448;2022-10-26T00:16:21;12.30;;;3.78;;
37237;SDS011;23129;49.662;8.448;2022-10-26T00:18:52;9.13;;;3.33;;
37237;SDS011;23129;49.662;8.448;2022-10-26T00:21:21;16.67;;;4.63;;
37237;SDS011;23129;49.662;8.448;2022-10-26T00:23:49;7.40;;;3.38;;
37237;SDS011;23129;49.662;8.448;2022-10-26T00:26:18;6.47;;;3.17;;
37237;SDS011;23129;49.662;8.448;2022-10-26T00:28:47;5.22;;;2.95;;
37237;SDS011;23129;49.662;8.448;2022-10-26T00:31:15;5.82;;;2.90;;
37237;SDS011;23129;49.662;8.448;2022-10-26T00:33:44;13.57;;;2.88;;
37237;SDS011;23129;49.662;8.448;2022-10-26T00:36:12;4.68;;;2.72;;
37237;SDS011;23129;49.662;8.448;2022-10-26T00:38:41;9.30;;;3.53;;
37237;SDS011;23129;49.662;8.448;2022-10-26T00:41:14;5.63;;;2.97;;
37237;SDS011;23129;49.662;8.448;2022-10-26T00:43:44;5.60;;;3.35;;
37237;SDS011;23129;49.662;8.448;2022-10-26T00:46:15;8.00;;;3.20;;
37237;SDS011;23129;49.662;8.448;2022-10-26T00:48:48;11.02;;;3.15;;
37237;SDS011;23129;49.662;8.448;2022-10-26T00:51:21;6.47;;;3.10;;
37237;SDS011;23129;49.662;8.448;2022-10-26T00:53:58;6.25;;;3.28;;
37237;SDS011;23129;49.662;8.448;2022-10-26T00:56:29;7.53;;;3.58;;
37237;SDS011;23129;49.662;8.448;2022-10-26T00:59:01;7.88;;;3.17;;
37237;SDS011;23129;49.662;8.448;2022-10-26T01:01:34;8.70;;;3.38;;
37237;SDS011;23129;49.662;8.448;2022-10-26T01:04:07;9.95;;;3.15;;
37237;SDS011;23129;49.662;8.448;2022-10-26T01:06:35;6.10;;;3.10;;
37237;SDS011;23129;49.662;8.448;2022-10-26T01:09:04;9.63;;;3.08;;
37237;SDS011;23129;49.662;8.448;2022-10-26T01:11:33;8.30;;;3.53;;
37237;SDS011;23129;49.662;8.448;2022-10-26T01:14:02;7.55;;;3.30;;
37237;SDS011;23129;49.662;8.448;2022-10-26T01:16:43;10.63;;;3.40;;
37237;SDS011;23129;49.662;8.448;2022-10-26T01:19:44;15.75;;;3.78;;
37237;SDS011;23129;49.662;8.448;2022-10-26T01:22:46;6.78;;;3.15;;
37237;SDS011;23129;49.662;8.448;2022-10-26T01:25:37;9.18;;;3.75;;
37237;SDS011;23129;49.662;8.448;2022-10-26T01:28:19;7.90;;;3.80;;
37237;SDS011;23129;49.662;8.448;2022-10-26T01:31:07;4.45;;;4.05;;
37237;SDS011;23129;49.662;8.448;2022-10-26T01:33:41;6.40;;;3.28;;
37237;SDS011;23129;49.662;8.448;2022-10-26T01:36:16;9.63;;;4.20;;
37237;SDS011;23129;49.662;8.448;2022-10-26T01:39:02;8.90;;;3.53;;
37237;SDS011;23129;49.662;8.448;2022-10-26T01:41:38;8.40;;;5.13;;
37237;SDS011;23129;49.662;8.448;2022-10-26T01:44:13;6.63;;;4.45;;
37237;SDS011;23129;49.662;8.448;2022-10-26T01:46:48;6.40;;;3.60;;
37237;SDS011;23129;49.662;8.448;2022-10-26T01:49:20;5.25;;;3.50;;
37237;SDS011;23129;49.662;8.448;2022-10-26T01:51:52;8.05;;;3.42;;
37237;SDS011;23129;49.662;8.448;2022-10-26T01:54:21;7.85;;;4.07;;
37237;SDS011;23129;49.662;8.448;2022-10-26T01:56:50;7.07;;;2.97;;
37237;SDS011;23129;49.662;8.448;2022-10-26T01:59:26;8.30;;;3.05;;
37237;SDS011;23129;49.662;8.448;2022-10-26T02:02:40;7.22;;;3.30;;
37237;SDS011;23129;49.662;8.448;2022-10-26T02:05:43;3.40;;;2.80;;
37237;SDS011;23129;49.662;8.448;2022-10-26T02:08:34;7.05;;;3.15;;
37237;SDS011;23129;49.662;8.448;2022-10-26T02:11:28;7.82;;;3.47;;
37237;SDS011;23129;49.662;8.448;2022-10-26T02:14:11;4.82;;;3.22;;
37237;SDS011;23129;49.662;8.448;2022-10-26T02:16:48;7.57;;;3.22;;
37237;SDS011;23129;49.662;8.448;2022-10-26T02:19:28;4.85;;;3.83;;
37237;SDS011;23129;49.662;8.448;2022-10-26T02:22:04;4.22;;;3.83;;
37237;SDS011;23129;49.662;8.448;2022-10-26T02:24:41;11.20;;;3.92;;
37237;SDS011;23129;49.662;8.448;2022-10-26T02:27:12;5.15;;;3.45;;
37237;SDS011;23129;49.662;8.448;2022-10-26T02:29:46;5.63;;;3.50;;
37237;SDS011;23129;49.662;8.448;2022-10-26T02:32:17;16.83;;;3.90;;
37237;SDS011;23129;49.662;8.448;2022-10-26T02:34:50;9.23;;;3.53;;
37237;SDS011;23129;49.662;8.448;2022-10-26T02:37:20;8.23;;;4.30;;
37237;SDS011;23129;49.662;8.448;2022-10-26T02:39:50;10.45;;;6.05;;
37237;SDS011;23129;49.662;8.448;2022-10-26T02:42:21;18.83;;;7.57;;
37237;SDS011;23129;49.662;8.448;2022-10-26T02:44:52;9.75;;;5.70;;
37237;SDS011;23129;49.662;8.448;2022-10-26T02:47:24;11.75;;;5.80;;
37237;SDS011;23129;49.662;8.448;2022-10-26T02:49:54;13.70;;;6.38;;
37237;SDS011;23129;49.662;8.448;2022-10-26T02:52:23;7.45;;;5.15;;
37237;SDS011;23129;49.662;8.448;2022-10-26T02:55:03;9.02;;;4.50;;
37237;SDS011;23129;49.662;8.448;2022-10-26T02:57:38;15.88;;;4.07;;
37237;SDS011;23129;49.662;8.448;2022-10-26T03:00:09;8.77;;;4.25;;
37237;SDS011;23129;49.662;8.448;2022-10-26T03:02:41;7.05;;;3.53;;
37237;SDS011;23129;49.662;8.448;2022-10-26T03:05:17;6.15;;;3.72;;
37237;SDS011;23129;49.662;8.448;2022-10-26T03:07:49;6.97;;;3.33;;
37237;SDS011;23129;49.662;8.448;2022-10-26T03:10:18;9.70;;;3.72;;
37237;SDS011;23129;49.662;8.448;2022-10-26T03:12:47;8.52;;;3.55;;
37237;SDS011;23129;49.662;8.448;2022-10-26T03:15:16;6.03;;;4.22;;
37237;SDS011;23129;49.662;8.448;2022-10-26T03:17:45;9.30;;;3.63;;
37237;SDS011;23129;49.662;8.448;2022-10-26T03:20:15;9.60;;;3.45;;
37237;SDS011;23129;49.662;8.448;2022-10-26T03:22:45;4.40;;;3.03;;
37237;SDS011;23129;49.662;8.448;2022-10-26T03:25:14;5.13;;;3.58;;
37237;SDS011;23129;49.662;8.448;2022-10-26T03:27:44;10.80;;;3.30;;
37237;SDS011;23129;49.662;8.448;2022-10-26T03:30:14;10.95;;;3.30;;
37237;SDS011;23129;49.662;8.448;2022-10-26T03:32:42;9.48;;;3.58;;
37237;SDS011;23129;49.662;8.448;2022-10-26T03:35:10;5.60;;;3.20;;
37237;SDS011;23129;49.662;8.448;2022-10-26T03:37:40;7.07;;;3.78;;
37237;SDS011;23129;49.662;8.448;2022-10-26T03:40:09;4.68;;;3.80;;
37237;SDS011;23129;49.662;8.448;2022-10-26T03:42:38;7.45;;;3.35;;
37237;SDS011;23129;49.662;8.448;2022-10-26T03:45:07;7.43;;;3.25;;
37237;SDS011;23129;49.662;8.448;2022-10-26T03:47:41;8.60;;;3.17;;
37237;SDS011;23129;49.662;8.448;2022-10-26T03:50:11;4.32;;;2.80;;
37237;SDS011;23129;49.662;8.448;2022-10-26T03:52:43;9.38;;;2.72;;
37237;SDS011;23129;49.662;8.448;2022-10-26T03:55:13;10.07;;;4.50;;
37237;SDS011;23129;49.662;8.448;2022-10-26T03:57:43;5.10;;;3.20;;
37237;SDS011;23129;49.662;8.448;2022-10-26T04:00:12;4.82;;;3.22;;
37237;SDS011;23129;49.662;8.448;2022-10-26T04:02:43;4.80;;;3.30;;
37237;SDS011;23129;49.662;8.448;2022-10-26T04:05:14;3.42;;;3.10;;
37237;SDS011;23129;49.662;8.448;2022-10-26T04:07:48;11.75;;;3.42;;
37237;SDS011;23129;49.662;8.448;2022-10-26T04:10:19;4.45;;;2.90;;
37237;SDS011;23129;49.662;8.448;2022-10-26T04:12:48;6.60;;;2.38;;
37237;SDS011;23129;49.662;8.448;2022-10-26T04:15:16;5.03;;;2.55;;
37237;SDS011;23129;49.662;8.448;2022-10-26T04:17:45;3.30;;;2.50;;
37237;SDS011;23129;49.662;8.448;2022-10-26T04:20:14;4.47;;;3.25;;
37237;SDS011;23129;49.662;8.448;2022-10-26T04:22:44;6.18;;;2.55;;
37237;SDS011;23129;49.662;8.448;2022-10-26T04:25:12;7.80;;;3.10;;
37237;SDS011;23129;49.662;8.448;2022-10-26T04:27:41;6.93;;;2.88;;
37237;SDS011;23129;49.662;8.448;2022-10-26T04:30:10;6.85;;;2.88;;
37237;SDS011;23129;49.662;8.448;2022-10-26T04:32:39;10.63;;;3.83;;
37237;SDS011;23129;49.662;8.448;2022-10-26T04:35:08;6.30;;;3.75;;
37237;SDS011;23129;49.662;8.448;2022-10-26T04:37:40;7.10;;;3.38;;
37237;SDS011;23129;49.662;8.448;2022-10-26T04:40:10;7.00;;;3.38;;
37237;SDS011;23129;49.662;8.448;2022-10-26T04:42:40;5.68;;;4.10;;
37237;SDS011;23129;49.662;8.448;2022-10-26T04:45:09;8.13;;;4.30;;
37237;SDS011;23129;49.662;8.448;2022-10-26T04:47:38;4.22;;;3.28;;
37237;SDS011;23129;49.662;8.448;2022-10-26T04:50:08;5.32;;;3.70;;
37237;SDS011;23129;49.662;8.448;2022-10-26T04:52:38;14.20;;;4.20;;
37237;SDS011;23129;49.662;8.448;2022-10-26T04:55:07;4.00;;;3.55;;
37237;SDS011;23129;49.662;8.448;2022-10-26T04:57:37;6.60;;;4.00;;
37237;SDS011;23129;49.662;8.448;2022-10-26T05:00:05;4.80;;;3.38;;
37237;SDS011;23129;49.662;8.448;2022-10-26T05:02:35;11.52;;;4.32;;
37237;SDS011;23129;49.662;8.448;2022-10-26T05:05:04;5.60;;;4.00;;
37237;SDS011;23129;49.662;8.448;2022-10-26T05:07:38;12.25;;;4.57;;
37237;SDS011;23129;49.662;8.448;2022-10-26T05:10:06;12.07;;;5.38;;
37237;SDS011;23129;49.662;8.448;2022-10-26T05:12:37;14.88;;;4.68;;
37237;SDS011;23129;49.662;8.448;2022-10-26T05:15:06;11.35;;;5.80;;
37237;SDS011;23129;49.662;8.448;2022-10-26T05:17:37;11.20;;;5.35;;
37237;SDS011;23129;49.662;8.448;2022-10-26T05:20:06;6.93;;;4.85;;
37237;SDS011;23129;49.662;8.448;2022-10-26T05:22:38;12.93;;;5.60;;
37237;SDS011;23129;49.662;8.448;2022-10-26T05:25:07;11.60;;;5.43;;
37237;SDS011;23129;49.662;8.448;2022-10-26T05:27:35;7.82;;;4.45;;
37237;SDS011;23129;49.662;8.448;2022-10-26T05:30:06;10.07;;;4.38;;
37237;SDS011;23129;49.662;8.448;2022-10-26T05:32:35;5.57;;;4.13;;
37237;SDS011;23129;49.662;8.448;2022-10-26T05:35:04;12.45;;;4.47;;
37237;SDS011;23129;49.662;8.448;2022-10-26T05:37:33;8.63;;;4.65;;
37237;SDS011;23129;49.662;8.448;2022-10-26T05:40:01;16.83;;;5.95;;
37237;SDS011;23129;49.662;8.448;2022-10-26T05:42:30;11.73;;;5.85;;
37237;SDS011;23129;49.662;8.448;2022-10-26T05:45:00;12.05;;;4.93;;
37237;SDS011;23129;49.662;8.448;2022-10-26T05:47:28;6.03;;;3.47;;
37237;SDS011;23129;49.662;8.448;2022-10-26T05:49:57;10.57;;;3.25;;
37237;SDS011;23129;49.662;8.448;2022-10-26T05:52:26;6.75;;;3.63;;
37237;SDS011;23129;49.662;8.448;2022-10-26T05:54:54;5.57;;;2.70;;
37237;SDS011;23129;49.662;8.448;2022-10-26T05:57:23;9.93;;;3.38;;
37237;SDS011;23129;49.662;8.448;2022-10-26T05:59:52;12.85;;;3.67;;
37237;SDS011;23129;49.662;8.448;2022-10-26T06:02:25;4.75;;;2.85;;
37237;SDS011;23129;49.662;8.448;2022-10-26T06:05:04;10.15;;;4.95;;
37237;SDS011;23129;49.662;8.448;2022-10-26T06:07:36;9.32;;;4.38;;
37237;SDS011;23129;49.662;8.448;2022-10-26T06:10:05;5.88;;;3.53;;
37237;SDS011;23129;49.662;8.448;2022-10-26T06:12:37;5.32;;;3.25;;
37237;SDS011;23129;49.662;8.448;2022-10-26T06:15:08;12.88;;;4.43;;
37237;SDS011;23129;49.662;8.448;2022-10-26T06:17:45;5.32;;;3.83;;
37237;SDS011;23129;49.662;8.448;2022-10-26T06:20:30;11.48;;;3.65;;
37237;SDS011;23129;49.662;8.448;2022-10-26T06:23:18;8.38;;;4.50;;
37237;SDS011;23129;49.662;8.448;2022-10-26T06:26:05;10.02;;;5.63;;
37237;SDS011;23129;49.662;8.448;2022-10-26T06:28:42;13.73;;;5.65;;
37237;SDS011;23129;49.662;8.448;2022-10-26T06:31:19;11.25;;;6.10;;
37237;SDS011;23129;49.662;8.448;2022-10-26T06:33:49;13.57;;;5.22;;
37237;SDS011;23129;49.662;8.448;2022-10-26T06:36:23;8.45;;;4.63;;
37237;SDS011;23129;49.662;8.448;2022-10-26T06:38:54;21.58;;;6.50;;
37237;SDS011;23129;49.662;8.448;2022-10-26T06:41:27;28.63;;;9.00;;
37237;SDS011;23129;49.662;8.448;2022-10-26T06:43:58;21.17;;;6.40;;
37237;SDS011;23129;49.662;8.448;2022-10-26T06:46:33;9.98;;;5.82;;
37237;SDS011;23129;49.662;8.448;2022-10-26T06:49:09;11.52;;;4.68;;
37237;SDS011;23129;49.662;8.448;2022-10-26T06:51:45;10.98;;;5.03;;
37237;SDS011;23129;49.662;8.448;2022-10-26T06:54:20;5.57;;;4.63;;
37237;SDS011;23129;49.662;8.448;2022-10-26T06:56:55;11.57;;;4.93;;
37237;SDS011;23129;49.662;8.448;2022-10-26T06:59:28;15.57;;;7.22;;
37237;SDS011;23129;49.662;8.448;2022-10-26T07:02:03;11.73;;;7.68;;
37237;SDS011;23129;49.662;8.448;2022-10-26T07:04:34;15.90;;;7.88;;
37237;SDS011;23129;49.662;8.448;2022-10-26T07:07:02;16.67;;;6.70;;
37237;SDS011;23129;49.662;8.448;2022-10-26T07:09:31;15.50;;;6.70;;
37237;SDS011;23129;49.662;8.448;2022-10-26T07:11:59;8.48;;;6.55;;
37237;SDS011;23129;49.662;8.448;2022-10-26T07:14:27;9.02;;;5.93;;
37237;SDS011;23129;49.662;8.448;2022-10-26T07:16:56;9.95;;;6.50;;
37237;SDS011;23129;49.662;8.448;2022-10-26T07:19:24;10.05;;;5.65;;
37237;SDS011;23129;49.662;8.448;2022-10-26T07:21:55;9.98;;;5.93;;
37237;SDS011;23129;49.662;8.448;2022-10-26T07:24:24;12.10;;;5.25;;
37237;SDS011;23129;49.662;8.448;2022-10-26T07:26:53;10.00;;;4.60;;
37237;SDS011;23129;49.662;8.448;2022-10-26T07:29:22;6.47;;;4.40;;
37237;SDS011;23129;49.662;8.448;2022-10-26T07:31:52;16.05;;;5.18;;
37237;SDS011;23129;49.662;8.448;2022-10-26T07:34:21;19.10;;;3.65;;
37237;SDS011;23129;49.662;8.448;2022-10-26T07:36:49;14.55;;;4.75;;
37237;SDS011;23129;49.662;8.448;2022-10-26T07:39:19;10.20;;;4.50;;
37237;SDS011;23129;49.662;8.448;2022-10-26T07:41:47;11.40;;;4.22;;
37237;SDS011;23129;49.662;8.448;2022-10-26T07:44:15;15.88;;;5.22;;
37237;SDS011;23129;49.662;8.448;2022-10-26T07:46:44;10.75;;;4.80;;
37237;SDS011;23129;49.662;8.448;2022-10-26T07:49:13;13.10;;;4.97;;
37237;SDS011;23129;49.662;8.448;2022-10-26T07:51:45;7.78;;;4.43;;
37237;SDS011;23129;49.662;8.448;2022-10-26T07:54:13;10.82;;;4.07;;
37237;SDS011;23129;49.662;8.448;2022-10-26T07:56:43;10.57;;;3.97;;
37237;SDS011;23129;49.662;8.448;2022-10-26T07:59:11;10.10;;;3.80;;
37237;SDS011;23129;49.662;8.448;2022-10-26T08:01:40;8.38;;;3.88;;
37237;SDS011;23129;49.662;8.448;2022-10-26T08:04:08;10.15;;;3.92;;
37237;SDS011;23129;49.662;8.448;2022-10-26T08:06:37;5.65;;;3.30;;
37237;SDS011;23129;49.662;8.448;2022-10-26T08:09:06;9.43;;;4.25;;
37237;SDS011;23129;49.662;8.448;2022-10-26T08:11:34;11.20;;;4.22;;
37237;SDS011;23129;49.662;8.448;2022-10-26T08:14:04;13.75;;;4.60;;
37237;SDS011;23129;49.662;8.448;2022-10-26T08:16:32;11.40;;;3.28;;
37237;SDS011;23129;49.662;8.448;2022-10-26T08:19:01;12.30;;;3.83;;
37237;SDS011;23129;49.662;8.448;2022-10-26T08:21:29;7.53;;;3.85;;
37237;SDS011;23129;49.662;8.448;2022-10-26T08:24:06;3.97;;;3.00;;
37237;SDS011;23129;49.662;8.448;2022-10-26T08:26:34;5.75;;;3.33;;
37237;SDS011;23129;49.662;8.448;2022-10-26T08:29:04;10.68;;;3.42;;
37237;SDS011;23129;49.662;8.448;2022-10-26T08:31:33;18.17;;;3.05;;
37237;SDS011;23129;49.662;8.448;2022-10-26T08:34:01;19.50;;;2.85;;
37237;SDS011;23129;49.662;8.448;2022-10-26T08:36:30;14.63;;;3.45;;
37237;SDS011;23129;49.662;8.448;2022-10-26T08:38:58;10.43;;;3.13;;
37237;SDS011;23129;49.662;8.448;2022-10-26T08:41:29;10.05;;;2.83;;
37237;SDS011;23129;49.662;8.448;2022-10-26T08:44:06;8.85;;;3.13;;
37237;SDS011;23129;49.662;8.448;2022-10-26T08:46:47;9.40;;;2.92;;
37237;SDS011;23129;49.662;8.448;2022-10-26T08:49:22;12.95;;;3.38;;
37237;SDS011;23129;49.662;8.448;2022-10-26T08:51:54;3.50;;;2.33;;
37237;SDS011;23129;49.662;8.448;2022-10-26T08:54:29;6.70;;;2.38;;
37237;SDS011;23129;49.662;8.448;2022-10-26T08:57:09;6.38;;;2.10;;
37237;SDS011;23129;49.662;8.448;2022-10-26T08:59:48;7.88;;;3.03;;
37237;SDS011;23129;49.662;8.448;2022-10-26T09:02:24;10.15;;;2.55;;
37237;SDS011;23129;49.662;8.448;2022-10-26T09:04:52;9.20;;;3.10;;
37237;SDS011;23129;49.662;8.448;2022-10-26T09:07:33;5.38;;;2.45;;
37237;SDS011;23129;49.662;8.448;2022-10-26T09:10:16;5.15;;;3.00;;
37237;SDS011;23129;49.662;8.448;2022-10-26T09:12:58;4.63;;;2.50;;
37237;SDS011;23129;49.662;8.448;2022-10-26T09:15:39;12.70;;;3.10;;
37237;SDS011;23129;49.662;8.448;2022-10-26T09:18:26;9.23;;;3.00;;
37237;SDS011;23129;49.662;8.448;2022-10-26T09:21:13;5.25;;;3.05;;
37237;SDS011;23129;49.662;8.448;2022-10-26T09:23:58;9.68;;;3.70;;
37237;SDS011;23129;49.662;8.448;2022-10-26T09:26:35;9.20;;;3.42;;
37237;SDS011;23129;49.662;8.448;2022-10-26T09:31:41;6.40;;;3.40;;
37237;SDS011;23129;49.662;8.448;2022-10-26T09:34:15;13.50;;;3.63;;
37237;SDS011;23129;49.662;8.448;2022-10-26T09:36:52;14.88;;;4.22;;
37237;SDS011;23129;49.662;8.448;2022-10-26T09:39:23;14.38;;;3.80;;
37237;SDS011;23129;49.662;8.448;2022-10-26T09:42:03;8.98;;;3.13;;
37237;SDS011;23129;49.662;8.448;2022-10-26T09:44:43;7.45;;;3.60;;
37237;SDS011;23129;49.662;8.448;2022-10-26T09:47:22;15.07;;;3.40;;
37237;SDS011;23129;49.662;8.448;2022-10-26T09:50:01;9.43;;;3.30;;
37237;SDS011;23129;49.662;8.448;2022-10-26T09:52:42;7.97;;;3.40;;
37237;SDS011;23129;49.662;8.448;2022-10-26T09:55:11;9.75;;;3.08;;
37237;SDS011;23129;49.662;8.448;2022-10-26T09:57:40;7.93;;;3.72;;
37237;SDS011;23129;49.662;8.448;2022-10-26T10:00:13;9.13;;;3.92;;
37237;SDS011;23129;49.662;8.448;2022-10-26T10:02:44;11.40;;;3.50;;
37237;SDS011;23129;49.662;8.448;2022-10-26T10:05:24;14.93;;;2.60;;
37237;SDS011;23129;49.662;8.448;2022-10-26T10:08:17;10.63;;;2.92;;
37237;SDS011;23129;49.662;8.448;2022-10-26T10:10:54;6.40;;;2.78;;
37237;SDS011;23129;49.662;8.448;2022-10-26T10:13:26;7.90;;;2.78;;
37237;SDS011;23129;49.662;8.448;2022-10-26T10:16:02;8.10;;;2.92;;
37237;SDS011;23129;49.662;8.448;2022-10-26T10:18:35;10.93;;;3.35;;
37237;SDS011;23129;49.662;8.448;2022-10-26T10:21:05;8.88;;;3.00;;
37237;SDS011;23129;49.662;8.448;2022-10-26T10:23:35;6.25;;;2.72;;
37237;SDS011;23129;49.662;8.448;2022-10-26T10:26:14;8.45;;;3.30;;
37237;SDS011;23129;49.662;8.448;2022-10-26T10:28:42;8.20;;;3.17;;
37237;SDS011;23129;49.662;8.448;2022-10-26T10:31:28;8.07;;;3.30;;
37237;SDS011;23129;49.662;8.448;2022-10-26T10:33:59;11.95;;;2.92;;
37237;SDS011;23129;49.662;8.448;2022-10-26T10:36:41;8.95;;;2.58;;
37237;SDS011;23129;49.662;8.448;2022-10-26T10:39:30;17.25;;;3.35;;
37237;SDS011;23129;49.662;8.448;2022-10-26T10:42:10;16.40;;;2.80;;
37237;SDS011;23129;49.662;8.448;2022-10-26T10:44:44;4.60;;;2.55;;
37237;SDS011;23129;49.662;8.448;2022-10-26T10:47:18;10.40;;;3.25;;
37237;SDS011;23129;49.662;8.448;2022-10-26T10:49:52;9.75;;;2.28;;
37237;SDS011;23129;49.662;8.448;2022-10-26T10:52:24;10.10;;;2.78;;
37237;SDS011;23129;49.662;8.448;2022-10-26T10:54:58;14.95;;;2.58;;
37237;SDS011;23129;49.662;8.448;2022-10-26T10:57:49;13.68;;;3.15;;
37237;SDS011;23129;49.662;8.448;2022-10-26T11:00:33;5.40;;;2.45;;
37237;SDS011;23129;49.662;8.448;2022-10-26T11:03:09;10.57;;;2.20;;
37237;SDS011;23129;49.662;8.448;2022-10-26T11:05:59;11.00;;;2.38;;
37237;SDS011;23129;49.662;8.448;2022-10-26T11:08:36;10.80;;;2.72;;
37237;SDS011;23129;49.662;8.448;2022-10-26T11:11:09;6.97;;;2.25;;
37237;SDS011;23129;49.662;8.448;2022-10-26T11:13:43;6.68;;;2.40;;
37237;SDS011;23129;49.662;8.448;2022-10-26T11:16:20;4.40;;;2.35;;
37237;SDS011;23129;49.662;8.448;2022-10-26T11:18:54;9.32;;;2.17;;
37237;SDS011;23129;49.662;8.448;2022-10-26T11:21:30;11.77;;;2.40;;
37237;SDS011;23129;49.662;8.448;2022-10-26T11:24:04;7.63;;;1.98;;
37237;SDS011;23129;49.662;8.448;2022-10-26T11:26:43;5.93;;;1.58;;
37237;SDS011;23129;49.662;8.448;2022-10-26T11:29:22;4.28;;;2.00;;
37237;SDS011;23129;49.662;8.448;2022-10-26T11:32:06;4.85;;;1.70;;
37237;SDS011;23129;49.662;8.448;2022-10-26T11:34:43;17.27;;;2.05;;
37237;SDS011;23129;49.662;8.448;2022-10-26T11:37:23;7.13;;;2.38;;
37237;SDS011;23129;49.662;8.448;2022-10-26T11:40:03;9.93;;;2.00;;
37237;SDS011;23129;49.662;8.448;2022-10-26T11:42:43;11.98;;;2.08;;
37237;SDS011;23129;49.662;8.448;2022-10-26T11:45:19;6.03;;;2.50;;
37237;SDS011;23129;49.662;8.448;2022-10-26T11:47:52;10.38;;;2.30;;
37237;SDS011;23129;49.662;8.448;2022-10-26T11:50:28;8.02;;;2.40;;
37237;SDS011;23129;49.662;8.448;2022-10-26T11:53:07;3.80;;;2.13;;
37237;SDS011;23129;49.662;8.448;2022-10-26T11:55:41;4.50;;;1.92;;
37237;SDS011;23129;49.662;8.448;2022-10-26T11:58:14;7.70;;;1.50;;
37237;SDS011;23129;49.662;8.448;2022-10-26T12:00:44;10.43;;;1.63;;
37237;SDS011;23129;49.662;8.448;2022-10-26T12:05:50;3.30;;;1.50;;
37237;SDS011;23129;49.662;8.448;2022-10-26T12:08:22;4.63;;;1.63;;
37237;SDS011;23129;49.662;8.448;2022-10-26T12:10:56;6.07;;;2.10;;
37237;SDS011;23129;49.662;8.448;2022-10-26T12:13:37;7.05;;;1.70;;
37237;SDS011;23129;49.662;8.448;2022-10-26T12:16:12;4.05;;;1.02;;
37237;SDS011;23129;49.662;8.448;2022-10-26T12:18:49;6.80;;;1.45;;
37237;SDS011;23129;49.662;8.448;2022-10-26T12:21:23;6.53;;;1.55;;
37237;SDS011;23129;49.662;8.448;2022-10-26T12:23:56;6.95;;;1.73;;
37237;SDS011;23129;49.662;8.448;2022-10-26T12:26:36;12.88;;;1.58;;
37237;SDS011;23129;49.662;8.448;2022-10-26T12:29:12;3.55;;;1.60;;
37237;SDS011;23129;49.662;8.448;2022-10-26T12:32:02;10.98;;;1.50;;
37237;SDS011;23129;49.662;8.448;2022-10-26T12:34:56;8.15;;;1.33;;
37237;SDS011;23129;49.662;8.448;2022-10-26T12:37:29;9.82;;;1.70;;
37237;SDS011;23129;49.662;8.448;2022-10-26T12:52:43;10.00;;;1.42;;
37237;SDS011;23129;49.662;8.448;2022-10-26T12:55:29;5.03;;;1.38;;
37237;SDS011;23129;49.662;8.448;2022-10-26T13:01:51;5.18;;;1.40;;
37237;SDS011;23129;49.662;8.448;2022-10-26T13:04:54;7.20;;;1.88;;
37237;SDS011;23129;49.662;8.448;2022-10-26T13:08:00;5.40;;;1.30;;
37237;SDS011;23129;49.662;8.448;2022-10-26T13:10:29;7.57;;;1.80;;
37237;SDS011;23129;49.662;8.448;2022-10-26T13:12:59;5.35;;;1.45;;
37237;SDS011;23129;49.662;8.448;2022-10-26T13:15:32;3.13;;;1.63;;
37237;SDS011;23129;49.662;8.448;2022-10-26T13:18:08;3.25;;;1.15;;
37237;SDS011;23129;49.662;8.448;2022-10-26T13:20:51;4.40;;;1.20;;
37237;SDS011;23129;49.662;8.448;2022-10-26T13:23:29;4.93;;;1.05;;
37237;SDS011;23129;49.662;8.448;2022-10-26T13:26:01;4.72;;;1.48;;
37237;SDS011;23129;49.662;8.448;2022-10-26T13:28:45;1.73;;;0.90;;
37237;SDS011;23129;49.662;8.448;2022-10-26T13:34:25;5.32;;;1.13;;
37237;SDS011;23129;49.662;8.448;2022-10-26T13:37:00;3.33;;;1.33;;
37237;SDS011;23129;49.662;8.448;2022-10-26T13:39:39;5.10;;;1.25;;
37237;SDS011;23129;49.662;8.448;2022-10-26T13:42:12;4.25;;;0.90;;
37237;SDS011;23129;49.662;8.448;2022-10-26T13:44:46;11.10;;;1.33;;
37237;SDS011;23129;49.662;8.448;2022-10-26T13:47:21;6.15;;;1.20;;
37237;SDS011;23129;49.662;8.448;2022-10-26T13:49:55;5.10;;;1.10;;
37237;SDS011;23129;49.662;8.448;2022-10-26T13:52:32;2.70;;;1.17;;
37237;SDS011;23129;49.662;8.448;2022-10-26T13:55:06;8.45;;;1.70;;
37237;SDS011;23129;49.662;8.448;2022-10-26T13:57:44;3.33;;;0.98;;
37237;SDS011;23129;49.662;8.448;2022-10-26T14:00:26;4.53;;;0.82;;
37237;SDS011;23129;49.662;8.448;2022-10-26T14:02:54;4.60;;;0.93;;
37237;SDS011;23129;49.662;8.448;2022-10-26T14:05:23;8.73;;;1.88;;
37237;SDS011;23129;49.662;8.448;2022-10-26T14:07:52;6.88;;;1.52;;
37237;SDS011;23129;49.662;8.448;2022-10-26T14:10:23;3.58;;;1.17;;
37237;SDS011;23129;49.662;8.448;2022-10-26T14:12:56;6.82;;;1.40;;
37237;SDS011;23129;49.662;8.448;2022-10-26T14:15:27;4.20;;;1.38;;
37237;SDS011;23129;49.662;8.448;2022-10-26T14:17:59;7.20;;;1.83;;
37237;SDS011;23129;49.662;8.448;2022-10-26T14:20:30;10.98;;;1.42;;
37237;SDS011;23129;49.662;8.448;2022-10-26T14:22:59;5.13;;;1.55;;
37237;SDS011;23129;49.662;8.448;2022-10-26T14:25:28;8.55;;;1.83;;
37237;SDS011;23129;49.662;8.448;2022-10-26T14:28:20;7.78;;;1.63;;
37237;SDS011;23129;49.662;8.448;2022-10-26T14:30:52;8.75;;;2.08;;
37237;SDS011;23129;49.662;8.448;2022-10-26T14:33:25;5.15;;;1.10;;
37237;SDS011;23129;49.662;8.448;2022-10-26T14:35:55;4.13;;;1.30;;
37237;SDS011;23129;49.662;8.448;2022-10-26T14:38:24;5.78;;;1.45;;
37237;SDS011;23129;49.662;8.448;2022-10-26T14:40:57;4.50;;;2.17;;
37237;SDS011;23129;49.662;8.448;2022-10-26T14:43:25;3.38;;;1.25;;
37237;SDS011;23129;49.662;8.448;2022-10-26T14:45:55;3.33;;;1.33;;
37237;SDS011;23129;49.662;8.448;2022-10-26T14:48:24;8.50;;;1.40;;
37237;SDS011;23129;49.662;8.448;2022-10-26T14:51:00;5.82;;;1.60;;
37237;SDS011;23129;49.662;8.448;2022-10-26T14:53:35;5.25;;;2.05;;
37237;SDS011;23129;49.662;8.448;2022-10-26T14:56:15;7.35;;;1.70;;
37237;SDS011;23129;49.662;8.448;2022-10-26T14:58:49;4.35;;;1.38;;
37237;SDS011;23129;49.662;8.448;2022-10-26T15:01:30;7.85;;;1.50;;
37237;SDS011;23129;49.662;8.448;2022-10-26T15:04:03;6.68;;;1.55;;
37237;SDS011;23129;49.662;8.448;2022-10-26T15:06:35;9.65;;;2.17;;
37237;SDS011;23129;49.662;8.448;2022-10-26T15:09:29;9.95;;;1.50;;
37237;SDS011;23129;49.662;8.448;2022-10-26T15:12:04;17.35;;;2.00;;
37237;SDS011;23129;49.662;8.448;2022-10-26T15:14:34;3.35;;;1.67;;
37237;SDS011;23129;49.662;8.448;2022-10-26T15:17:04;10.85;;;2.22;;
37237;SDS011;23129;49.662;8.448;2022-10-26T15:19:33;5.43;;;1.58;;
37237;SDS011;23129;49.662;8.448;2022-10-26T15:22:04;1.92;;;1.40;;
37237;SDS011;23129;49.662;8.448;2022-10-26T15:24:48;11.73;;;1.92;;
37237;SDS011;23129;49.662;8.448;2022-10-26T15:27:20;6.88;;;1.40;;
37237;SDS011;23129;49.662;8.448;2022-10-26T15:29:50;5.78;;;1.27;;
37237;SDS011;23129;49.662;8.448;2022-10-26T15:32:36;9.52;;;2.03;;
37237;SDS011;23129;49.662;8.448;2022-10-26T15:35:09;5.22;;;1.30;;
37237;SDS011;23129;49.662;8.448;2022-10-26T15:37:57;6.72;;;1.40;;
37237;SDS011;23129;49.662;8.448;2022-10-26T15:40:27;3.63;;;1.58;;
37237;SDS011;23129;49.662;8.448;2022-10-26T15:42:58;6.45;;;1.27;;
37237;SDS011;23129;49.662;8.448;2022-10-26T15:45:28;3.17;;;1.40;;
37237;SDS011;23129;49.662;8.448;2022-10-26T15:48:14;4.18;;;1.75;;